sensor_id;sensor_type;location;lat;lon;timestamp;pressure;altitude;pressure_sealevel;temperature;humidity
31239;BME280;17871;31.584;74.450;2023-02-19T00:02:00;98657.78;;;18.56;93.73
31239;BME280;17871;31.584;74.450;2023-02-19T00:04:28;98662.00;;;18.60;93.79
31239;BME280;17871;31.584;74.450;2023-02-19T00:06:57;98671.38;;;18.64;93.41
31239;BME280;17871;31.584;74.450;2023-02-19T00:09:26;98661.09;;;18.61;93.38
31239;BME280;17871;31.584;74.450;2023-02-19T00:11:55;98664.63;;;18.57;93.12
31239;BME280;17871;31.584;74.450;2023-02-19T00:14:24;98669.28;;;18.40;93.67
31239;BME280;17871;31.584;74.450;2023-02-19T00:16:53;98670.16;;;18.39;93.83
31239;BME280;17871;31.584;74.450;2023-02-19T00:19:22;98670.34;;;18.30;94.21
31239;BME280;17871;31.584;74.450;2023-02-19T00:21:52;98670.16;;;18.39;93.70
31239;BME280;17871;31.584;74.450;2023-02-19T00:24:21;98671.34;;;18.22;94.47
31239;BME280;17871;31.584;74.450;2023-02-19T00:26:49;98675.59;;;18.27;93.42
31239;BME280;17871;31.584;74.450;2023-02-19T00:29:20;98680.84;;;18.21;94.99
31239;BME280;17871;31.584;74.450;2023-02-19T00:31:49;98675.84;;;18.12;95.20
31239;BME280;17871;31.584;74.450;2023-02-19T00:34:18;98683.41;;;18.23;94.48
31239;BME280;17871;31.584;74.450;2023-02-19T00:36:47;98681.81;;;18.15;94.32
31239;BME280;17871;31.584;74.450;2023-02-19T00:39:16;98696.34;;;18.24;94.74
31239;BME280;17871;31.584;74.450;2023-02-19T00:41:45;98696.34;;;18.24;94.19
31239;BME280;17871;31.584;74.450;2023-02-19T00:44:14;98700.59;;;18.27;94.17
31239;BME280;17871;31.584;74.450;2023-02-19T00:46:45;98702.13;;;18.37;94.11
31239;BME280;17871;31.584;74.450;2023-02-19T00:49:18;98706.50;;;18.33;94.03
31239;BME280;17871;31.584;74.450;2023-02-19T00:51:49;98702.19;;;18.32;94.19
31239;BME280;17871;31.584;74.450;2023-02-19T00:54:21;98705.66;;;18.31;94.42
31239;BME280;17871;31.584;74.450;2023-02-19T00:56:50;98703.19;;;18.25;94.62
31239;BME280;17871;31.584;74.450;2023-02-19T00:59:19;98713.59;;;18.22;94.75
31239;BME280;17871;31.584;74.450;2023-02-19T01:01:49;98709.16;;;18.30;94.22
31239;BME280;17871;31.584;74.450;2023-02-19T01:04:22;98714.34;;;18.29;94.37
31239;BME280;17871;31.584;74.450;2023-02-19T01:06:53;98713.91;;;18.53;93.47
31239;BME280;17871;31.584;74.450;2023-02-19T01:09:25;98711.81;;;18.27;93.66
31239;BME280;17871;31.584;74.450;2023-02-19T01:11:55;98722.34;;;18.15;94.10
31239;BME280;17871;31.584;74.450;2023-02-19T01:14:25;98721.53;;;18.11;94.74
31239;BME280;17871;31.584;74.450;2023-02-19T01:16:55;98722.34;;;18.17;94.02
31239;BME280;17871;31.584;74.450;2023-02-19T01:19:25;98732.63;;;18.18;93.86
31239;BME280;17871;31.584;74.450;2023-02-19T01:21:55;98736.25;;;18.11;94.26
31239;BME280;17871;31.584;74.450;2023-02-19T01:24:25;98739.69;;;18.10;94.55
31239;BME280;17871;31.584;74.450;2023-02-19T01:26:54;98746.53;;;18.14;94.41
31239;BME280;17871;31.584;74.450;2023-02-19T01:29:24;98743.13;;;18.10;94.83
31239;BME280;17871;31.584;74.450;2023-02-19T01:31:54;98743.94;;;18.12;94.95
31239;BME280;17871;31.584;74.450;2023-02-19T01:34:23;98747.31;;;18.18;94.60
31239;BME280;17871;31.584;74.450;2023-02-19T01:36:55;98751.53;;;18.23;94.66
31239;BME280;17871;31.584;74.450;2023-02-19T01:39:24;98760.16;;;18.22;94.48
31239;BME280;17871;31.584;74.450;2023-02-19T01:41:54;98752.47;;;18.19;94.47
31239;BME280;17871;31.584;74.450;2023-02-19T01:46:56;98754.25;;;18.15;95.55
31239;BME280;17871;31.584;74.450;2023-02-19T01:49:29;98755.78;;;18.27;95.80
31239;BME280;17871;31.584;74.450;2023-02-19T01:52:11;98765.75;;;18.47;95.60
31239;BME280;17871;31.584;74.450;2023-02-19T01:54:44;98761.53;;;18.43;95.00
31239;BME280;17871;31.584;74.450;2023-02-19T01:57:23;98755.38;;;18.48;95.44
31239;BME280;17871;31.584;74.450;2023-02-19T02:00:02;98758.78;;;18.53;94.75
31239;BME280;17871;31.584;74.450;2023-02-19T02:02:41;98769.88;;;18.58;94.13
31239;BME280;17871;31.584;74.450;2023-02-19T02:05:20;98761.13;;;18.65;94.08
31239;BME280;17871;31.584;74.450;2023-02-19T02:07:52;98775.16;;;18.52;93.52
31239;BME280;17871;31.584;74.450;2023-02-19T02:10:41;98778.44;;;18.63;93.30
31239;BME280;17871;31.584;74.450;2023-02-19T02:13:11;98780.16;;;18.61;93.14
31239;BME280;17871;31.584;74.450;2023-02-19T02:15:59;98782.34;;;18.83;92.85
31239;BME280;17871;31.584;74.450;2023-02-19T02:22:08;98799.81;;;18.72;92.93
31239;BME280;17871;31.584;74.450;2023-02-19T02:27:26;98785.34;;;18.63;93.46
31239;BME280;17871;31.584;74.450;2023-02-19T02:35:53;98805.28;;;19.01;93.60
31239;BME280;17871;31.584;74.450;2023-02-19T02:38:30;98816.44;;;19.06;92.78
31239;BME280;17871;31.584;74.450;2023-02-19T02:41:01;98813.72;;;19.12;92.08
31239;BME280;17871;31.584;74.450;2023-02-19T02:43:32;98816.16;;;19.18;91.45
31239;BME280;17871;31.584;74.450;2023-02-19T02:46:02;98820.75;;;19.04;91.32
31239;BME280;17871;31.584;74.450;2023-02-19T02:51:32;98811.97;;;19.54;90.01
31239;BME280;17871;31.584;74.450;2023-02-19T02:54:30;98819.75;;;19.54;89.87
31239;BME280;17871;31.584;74.450;2023-02-19T02:57:21;98822.56;;;19.43;89.45
31239;BME280;17871;31.584;74.450;2023-02-19T02:59:55;98820.75;;;19.48;89.19
31239;BME280;17871;31.584;74.450;2023-02-19T03:02:27;98834.31;;;19.59;88.87
31239;BME280;17871;31.584;74.450;2023-02-19T03:08:48;98848.66;;;19.76;87.60
31239;BME280;17871;31.584;74.450;2023-02-19T03:11:20;98848.78;;;19.69;87.56
31239;BME280;17871;31.584;74.450;2023-02-19T03:14:21;98850.09;;;19.89;87.44
31239;BME280;17871;31.584;74.450;2023-02-19T03:17:21;98848.38;;;19.88;88.36
31239;BME280;17871;31.584;74.450;2023-02-19T03:20:13;98854.50;;;19.85;87.19
31239;BME280;17871;31.584;74.450;2023-02-19T03:22:44;98861.34;;;19.88;87.12
31239;BME280;17871;31.584;74.450;2023-02-19T03:25:27;98858.47;;;20.00;86.55
31239;BME280;17871;31.584;74.450;2023-02-19T03:28:26;98851.34;;;20.08;86.21
31239;BME280;17871;31.584;74.450;2023-02-19T03:31:18;98853.63;;;20.22;85.48
31239;BME280;17871;31.584;74.450;2023-02-19T03:33:53;98855.16;;;20.32;85.56
31239;BME280;17871;31.584;74.450;2023-02-19T03:36:29;98858.63;;;20.31;84.56
31239;BME280;17871;31.584;74.450;2023-02-19T03:39:04;98864.94;;;20.54;83.53
31239;BME280;17871;31.584;74.450;2023-02-19T03:44:41;98863.94;;;20.92;82.52
31239;BME280;17871;31.584;74.450;2023-02-19T03:50:01;98870.50;;;21.05;80.65
31239;BME280;17871;31.584;74.450;2023-02-19T03:58:15;98876.13;;;21.53;79.17
31239;BME280;17871;31.584;74.450;2023-02-19T04:00:56;98883.00;;;21.84;77.78
31239;BME280;17871;31.584;74.450;2023-02-19T04:03:40;98889.75;;;21.91;77.50
31239;BME280;17871;31.584;74.450;2023-02-19T04:06:21;98889.47;;;22.00;76.61
31239;BME280;17871;31.584;74.450;2023-02-19T04:08:54;98893.88;;;21.98;76.38
31239;BME280;17871;31.584;74.450;2023-02-19T04:11:26;98896.56;;;21.95;76.04
31239;BME280;17871;31.584;74.450;2023-02-19T04:16:59;98888.28;;;22.36;74.65
31239;BME280;17871;31.584;74.450;2023-02-19T04:19:32;98898.03;;;22.57;73.89
31239;BME280;17871;31.584;74.450;2023-02-19T04:22:05;98907.44;;;22.61;73.24
31239;BME280;17871;31.584;74.450;2023-02-19T04:24:37;98906.72;;;22.56;72.33
31239;BME280;17871;31.584;74.450;2023-02-19T04:27:08;98910.91;;;22.62;72.02
31239;BME280;17871;31.584;74.450;2023-02-19T04:29:38;98919.31;;;22.71;71.97
31239;BME280;17871;31.584;74.450;2023-02-19T04:32:09;98918.38;;;22.72;72.46
31239;BME280;17871;31.584;74.450;2023-02-19T04:34:39;98920.84;;;22.77;71.70
31239;BME280;17871;31.584;74.450;2023-02-19T04:37:08;98919.88;;;22.80;72.24
31239;BME280;17871;31.584;74.450;2023-02-19T04:39:37;98918.72;;;22.62;72.92
31239;BME280;17871;31.584;74.450;2023-02-19T04:42:06;98923.69;;;22.69;73.01
31239;BME280;17871;31.584;74.450;2023-02-19T04:44:34;98925.41;;;22.70;73.01
31239;BME280;17871;31.584;74.450;2023-02-19T04:47:03;98918.28;;;22.75;72.89
31239;BME280;17871;31.584;74.450;2023-02-19T04:49:32;98917.56;;;22.97;72.65
31239;BME280;17871;31.584;74.450;2023-02-19T04:52:01;98916.16;;;22.87;72.85
31239;BME280;17871;31.584;74.450;2023-02-19T04:54:30;98925.84;;;22.83;73.07
31239;BME280;17871;31.584;74.450;2023-02-19T04:56:59;98924.50;;;22.98;72.66
31239;BME280;17871;31.584;74.450;2023-02-19T04:59:27;98930.97;;;22.86;73.30
31239;BME280;17871;31.584;74.450;2023-02-19T05:01:56;98921.69;;;23.02;72.95
31239;BME280;17871;31.584;74.450;2023-02-19T05:04:25;98932.50;;;23.16;72.63
31239;BME280;17871;31.584;74.450;2023-02-19T05:06:54;98927.38;;;23.15;72.51
31239;BME280;17871;31.584;74.450;2023-02-19T05:09:23;98927.19;;;23.19;72.50
31239;BME280;17871;31.584;74.450;2023-02-19T05:11:52;98923.56;;;23.23;72.58
31239;BME280;17871;31.584;74.450;2023-02-19T05:14:21;98931.38;;;23.48;71.83
31239;BME280;17871;31.584;74.450;2023-02-19T05:16:49;98931.09;;;23.57;72.00
31239;BME280;17871;31.584;74.450;2023-02-19T05:19:18;98926.19;;;23.71;71.85
31239;BME280;17871;31.584;74.450;2023-02-19T05:21:47;98928.47;;;23.81;71.26
31239;BME280;17871;31.584;74.450;2023-02-19T05:24:19;98925.03;;;24.02;70.42
31239;BME280;17871;31.584;74.450;2023-02-19T05:26:48;98924.47;;;23.94;70.05
31239;BME280;17871;31.584;74.450;2023-02-19T05:29:17;98916.91;;;24.09;69.82
31239;BME280;17871;31.584;74.450;2023-02-19T05:31:46;98915.72;;;23.95;69.61
31239;BME280;17871;31.584;74.450;2023-02-19T05:34:16;98919.00;;;24.23;69.34
31239;BME280;17871;31.584;74.450;2023-02-19T05:36:45;98916.03;;;24.32;68.82
31239;BME280;17871;31.584;74.450;2023-02-19T05:39:14;98920.81;;;24.43;68.02
31239;BME280;17871;31.584;74.450;2023-02-19T05:41:43;98904.06;;;24.68;67.74
31239;BME280;17871;31.584;74.450;2023-02-19T05:44:12;98908.13;;;24.75;67.36
31239;BME280;17871;31.584;74.450;2023-02-19T05:46:41;98906.00;;;24.85;66.66
31239;BME280;17871;31.584;74.450;2023-02-19T05:49:09;98903.19;;;24.90;66.67
31239;BME280;17871;31.584;74.450;2023-02-19T05:51:38;98905.16;;;24.85;66.44
31239;BME280;17871;31.584;74.450;2023-02-19T05:54:07;98901.63;;;24.86;66.85
31239;BME280;17871;31.584;74.450;2023-02-19T05:56:39;98904.50;;;25.00;66.49
31239;BME280;17871;31.584;74.450;2023-02-19T05:59:23;98902.59;;;25.23;65.82
31239;BME280;17871;31.584;74.450;2023-02-19T06:01:53;98904.00;;;25.12;65.82
31239;BME280;17871;31.584;74.450;2023-02-19T06:04:22;98896.47;;;25.04;65.78
31239;BME280;17871;31.584;74.450;2023-02-19T06:06:51;98896.78;;;25.17;65.83
31239;BME280;17871;31.584;74.450;2023-02-19T06:09:20;98894.28;;;25.34;65.63
31239;BME280;17871;31.584;74.450;2023-02-19T06:11:49;98888.75;;;25.40;65.41
31239;BME280;17871;31.584;74.450;2023-02-19T06:14:17;98887.28;;;25.35;65.46
31239;BME280;17871;31.584;74.450;2023-02-19T06:16:46;98889.91;;;25.35;64.49
31239;BME280;17871;31.584;74.450;2023-02-19T06:19:15;98886.00;;;25.43;64.74
31239;BME280;17871;31.584;74.450;2023-02-19T06:21:44;98886.28;;;25.37;64.53
31239;BME280;17871;31.584;74.450;2023-02-19T06:24:14;98882.66;;;25.21;63.87
31239;BME280;17871;31.584;74.450;2023-02-19T06:26:42;98875.69;;;25.40;63.53
31239;BME280;17871;31.584;74.450;2023-02-19T06:29:11;98878.06;;;25.65;63.26
31239;BME280;17871;31.584;74.450;2023-02-19T06:31:40;98870.00;;;25.69;62.83
31239;BME280;17871;31.584;74.450;2023-02-19T06:34:09;98860.50;;;25.86;62.95
31239;BME280;17871;31.584;74.450;2023-02-19T06:36:38;98855.09;;;25.89;63.33
31239;BME280;17871;31.584;74.450;2023-02-19T06:39:08;98838.28;;;25.75;62.79
31239;BME280;17871;31.584;74.450;2023-02-19T06:41:37;98835.75;;;25.74;62.67
31239;BME280;17871;31.584;74.450;2023-02-19T06:44:05;98849.19;;;25.85;62.31
31239;BME280;17871;31.584;74.450;2023-02-19T06:46:34;98829.06;;;25.86;62.67
31239;BME280;17871;31.584;74.450;2023-02-19T06:49:04;98832.03;;;25.97;62.58
31239;BME280;17871;31.584;74.450;2023-02-19T06:51:33;98816.31;;;25.97;62.01
31239;BME280;17871;31.584;74.450;2023-02-19T06:54:02;98820.00;;;25.93;62.16
31239;BME280;17871;31.584;74.450;2023-02-19T06:56:36;98819.31;;;26.25;62.46
31239;BME280;17871;31.584;74.450;2023-02-19T06:59:10;98814.22;;;26.22;61.81
31239;BME280;17871;31.584;74.450;2023-02-19T07:01:40;98806.94;;;26.10;61.09
31239;BME280;17871;31.584;74.450;2023-02-19T07:04:08;98800.16;;;26.24;60.94
31239;BME280;17871;31.584;74.450;2023-02-19T07:06:38;98804.38;;;26.27;60.30
31239;BME280;17871;31.584;74.450;2023-02-19T07:09:07;98789.56;;;26.26;60.21
31239;BME280;17871;31.584;74.450;2023-02-19T07:11:38;98802.44;;;26.48;59.43
31239;BME280;17871;31.584;74.450;2023-02-19T07:14:13;98797.66;;;26.73;59.54
31239;BME280;17871;31.584;74.450;2023-02-19T07:16:43;98785.25;;;26.59;58.49
31239;BME280;17871;31.584;74.450;2023-02-19T07:19:13;98778.22;;;26.77;57.65
31239;BME280;17871;31.584;74.450;2023-02-19T07:21:42;98776.91;;;26.86;57.24
31239;BME280;17871;31.584;74.450;2023-02-19T07:24:11;98761.53;;;26.95;57.60
31239;BME280;17871;31.584;74.450;2023-02-19T07:26:40;98762.22;;;26.99;58.22
31239;BME280;17871;31.584;74.450;2023-02-19T07:29:09;98765.00;;;27.11;56.14
31239;BME280;17871;31.584;74.450;2023-02-19T07:31:38;98757.50;;;27.21;56.25
31239;BME280;17871;31.584;74.450;2023-02-19T07:34:07;98756.81;;;27.17;56.18
31239;BME280;17871;31.584;74.450;2023-02-19T07:36:36;98750.56;;;27.20;57.05
31239;BME280;17871;31.584;74.450;2023-02-19T07:39:05;98747.34;;;27.15;57.64
31239;BME280;17871;31.584;74.450;2023-02-19T07:41:36;98752.69;;;27.29;58.02
31239;BME280;17871;31.584;74.450;2023-02-19T07:44:05;98742.19;;;27.29;57.26
31239;BME280;17871;31.584;74.450;2023-02-19T07:46:34;98734.47;;;27.26;58.40
31239;BME280;17871;31.584;74.450;2023-02-19T07:49:03;98727.09;;;27.17;58.08
31239;BME280;17871;31.584;74.450;2023-02-19T07:51:32;98723.47;;;27.19;59.27
31239;BME280;17871;31.584;74.450;2023-02-19T07:54:00;98718.22;;;27.35;59.38
31239;BME280;17871;31.584;74.450;2023-02-19T07:56:29;98719.75;;;27.39;58.00
31239;BME280;17871;31.584;74.450;2023-02-19T07:58:59;98716.22;;;27.56;58.22
31239;BME280;17871;31.584;74.450;2023-02-19T08:01:28;98706.56;;;27.56;59.01
31239;BME280;17871;31.584;74.450;2023-02-19T08:04:16;98701.13;;;27.59;58.59
31239;BME280;17871;31.584;74.450;2023-02-19T08:06:45;98696.09;;;27.70;58.64
31239;BME280;17871;31.584;74.450;2023-02-19T08:09:13;98697.00;;;27.85;58.85
31239;BME280;17871;31.584;74.450;2023-02-19T08:11:42;98685.53;;;27.86;58.76
31239;BME280;17871;31.584;74.450;2023-02-19T08:14:30;98683.81;;;28.01;58.35
31239;BME280;17871;31.584;74.450;2023-02-19T08:16:59;98683.75;;;27.87;57.98
31239;BME280;17871;31.584;74.450;2023-02-19T08:19:28;98687.06;;;28.20;57.28
31239;BME280;17871;31.584;74.450;2023-02-19T08:21:56;98672.44;;;28.30;57.93
31239;BME280;17871;31.584;74.450;2023-02-19T08:24:26;98671.22;;;28.35;58.20
31239;BME280;17871;31.584;74.450;2023-02-19T08:26:54;98669.25;;;28.39;58.04
31239;BME280;17871;31.584;74.450;2023-02-19T08:29:23;98662.41;;;28.37;57.11
31239;BME280;17871;31.584;74.450;2023-02-19T08:31:52;98652.25;;;28.30;58.27
31239;BME280;17871;31.584;74.450;2023-02-19T08:34:21;98651.97;;;28.21;58.31
31239;BME280;17871;31.584;74.450;2023-02-19T08:36:50;98649.56;;;28.32;58.06
31239;BME280;17871;31.584;74.450;2023-02-19T08:39:19;98649.38;;;28.35;57.77
31239;BME280;17871;31.584;74.450;2023-02-19T08:41:47;98645.31;;;28.44;57.00
31239;BME280;17871;31.584;74.450;2023-02-19T08:44:16;98649.72;;;28.29;57.10
31239;BME280;17871;31.584;74.450;2023-02-19T08:46:45;98643.91;;;28.24;58.58
31239;BME280;17871;31.584;74.450;2023-02-19T08:49:14;98642.41;;;28.34;57.75
31239;BME280;17871;31.584;74.450;2023-02-19T08:51:43;98644.84;;;28.37;56.23
31239;BME280;17871;31.584;74.450;2023-02-19T08:54:12;98647.09;;;28.15;55.24
31239;BME280;17871;31.584;74.450;2023-02-19T08:56:41;98631.41;;;28.27;54.60
31239;BME280;17871;31.584;74.450;2023-02-19T08:59:10;98633.41;;;28.38;55.26
31239;BME280;17871;31.584;74.450;2023-02-19T09:01:39;98624.47;;;28.41;55.58
31239;BME280;17871;31.584;74.450;2023-02-19T09:04:11;98621.19;;;28.37;56.01
31239;BME280;17871;31.584;74.450;2023-02-19T09:06:40;98620.44;;;28.35;56.14
31239;BME280;17871;31.584;74.450;2023-02-19T09:09:11;98615.38;;;28.18;56.91
31239;BME280;17871;31.584;74.450;2023-02-19T09:11:40;98613.00;;;28.27;56.88
31239;BME280;17871;31.584;74.450;2023-02-19T09:14:09;98602.41;;;28.15;57.97
31239;BME280;17871;31.584;74.450;2023-02-19T09:16:38;98597.75;;;28.04;57.44
31239;BME280;17871;31.584;74.450;2023-02-19T09:19:07;98594.91;;;28.09;56.47
31239;BME280;17871;31.584;74.450;2023-02-19T09:21:36;98593.53;;;28.02;56.67
31239;BME280;17871;31.584;74.450;2023-02-19T09:24:04;98588.81;;;28.08;56.91
31239;BME280;17871;31.584;74.450;2023-02-19T09:26:36;98579.44;;;28.03;58.32
31239;BME280;17871;31.584;74.450;2023-02-19T09:29:05;98582.06;;;28.03;59.08
31239;BME280;17871;31.584;74.450;2023-02-19T09:31:33;98578.38;;;28.07;59.40
31239;BME280;17871;31.584;74.450;2023-02-19T09:34:02;98584.22;;;27.96;58.34
31239;BME280;17871;31.584;74.450;2023-02-19T09:36:33;98582.56;;;27.95;58.64
31239;BME280;17871;31.584;74.450;2023-02-19T09:39:02;98582.63;;;27.94;57.32
31239;BME280;17871;31.584;74.450;2023-02-19T09:41:35;98582.38;;;27.98;57.89
31239;BME280;17871;31.584;74.450;2023-02-19T09:44:08;98577.13;;;27.98;57.28
31239;BME280;17871;31.584;74.450;2023-02-19T09:46:50;98575.22;;;28.00;55.90
31239;BME280;17871;31.584;74.450;2023-02-19T09:49:36;98565.47;;;27.88;55.04
31239;BME280;17871;31.584;74.450;2023-02-19T09:52:12;98563.88;;;28.00;55.41
31239;BME280;17871;31.584;74.450;2023-02-19T09:54:42;98558.41;;;27.74;55.11
31239;BME280;17871;31.584;74.450;2023-02-19T09:57:18;98562.38;;;27.81;50.38
31239;BME280;17871;31.584;74.450;2023-02-19T09:59:59;98560.88;;;27.92;49.43
31239;BME280;17871;31.584;74.450;2023-02-19T10:02:30;98552.91;;;27.79;50.40
31239;BME280;17871;31.584;74.450;2023-02-19T10:04:59;98560.97;;;27.90;49.97
31239;BME280;17871;31.584;74.450;2023-02-19T10:07:42;98559.97;;;28.21;48.88
31239;BME280;17871;31.584;74.450;2023-02-19T10:12:53;98549.66;;;28.32;49.52
31239;BME280;17871;31.584;74.450;2023-02-19T10:15:33;98546.44;;;28.27;51.99
31239;BME280;17871;31.584;74.450;2023-02-19T10:18:04;98556.59;;;28.19;51.84
31239;BME280;17871;31.584;74.450;2023-02-19T10:20:37;98551.81;;;28.11;52.90
31239;BME280;17871;31.584;74.450;2023-02-19T10:23:10;98552.28;;;28.18;55.04
31239;BME280;17871;31.584;74.450;2023-02-19T10:25:52;98550.59;;;28.17;57.31
31239;BME280;17871;31.584;74.450;2023-02-19T10:28:29;98550.84;;;27.98;58.78
31239;BME280;17871;31.584;74.450;2023-02-19T10:31:01;98538.75;;;27.96;58.52
31239;BME280;17871;31.584;74.450;2023-02-19T10:33:30;98541.91;;;27.87;57.99
31239;BME280;17871;31.584;74.450;2023-02-19T10:36:03;98541.53;;;27.93;59.25
31239;BME280;17871;31.584;74.450;2023-02-19T10:38:38;98535.53;;;27.91;59.61
31239;BME280;17871;31.584;74.450;2023-02-19T10:41:13;98539.84;;;27.77;59.42
31239;BME280;17871;31.584;74.450;2023-02-19T10:44:01;98533.94;;;27.88;58.87
31239;BME280;17871;31.584;74.450;2023-02-19T10:46:33;98526.72;;;27.77;59.93
31239;BME280;17871;31.584;74.450;2023-02-19T10:49:06;98525.00;;;27.76;61.30
31239;BME280;17871;31.584;74.450;2023-02-19T10:51:45;98525.50;;;27.69;61.53
31239;BME280;17871;31.584;74.450;2023-02-19T10:54:18;98529.50;;;27.60;61.59
31239;BME280;17871;31.584;74.450;2023-02-19T10:56:47;98530.28;;;27.91;60.49
31239;BME280;17871;31.584;74.450;2023-02-19T10:59:27;98528.84;;;27.71;61.00
31239;BME280;17871;31.584;74.450;2023-02-19T11:02:01;98521.81;;;27.57;59.05
31239;BME280;17871;31.584;74.450;2023-02-19T11:04:32;98517.31;;;27.59;58.38
31239;BME280;17871;31.584;74.450;2023-02-19T11:07:16;98511.50;;;27.68;59.03
31239;BME280;17871;31.584;74.450;2023-02-19T11:09:48;98516.00;;;27.66;60.70
31239;BME280;17871;31.584;74.450;2023-02-19T11:12:32;98514.69;;;27.59;60.27
31239;BME280;17871;31.584;74.450;2023-02-19T11:23:44;98507.94;;;27.55;60.38
31239;BME280;17871;31.584;74.450;2023-02-19T11:26:25;98502.19;;;27.49;60.26
31239;BME280;17871;31.584;74.450;2023-02-19T11:28:58;98508.38;;;27.48;60.49
31239;BME280;17871;31.584;74.450;2023-02-19T11:31:30;98505.53;;;27.37;60.55
31239;BME280;17871;31.584;74.450;2023-02-19T11:37:13;98508.38;;;27.48;61.18
31239;BME280;17871;31.584;74.450;2023-02-19T11:39:47;98507.03;;;27.41;61.51
31239;BME280;17871;31.584;74.450;2023-02-19T11:45:33;98512.06;;;27.29;61.34
31239;BME280;17871;31.584;74.450;2023-02-19T11:48:32;98513.00;;;27.28;62.15
31239;BME280;17871;31.584;74.450;2023-02-19T11:53:34;98522.75;;;26.97;63.63
31239;BME280;17871;31.584;74.450;2023-02-19T12:02:05;98510.72;;;26.93;62.89
31239;BME280;17871;31.584;74.450;2023-02-19T12:07:56;98516.66;;;26.80;63.25
31239;BME280;17871;31.584;74.450;2023-02-19T12:21:59;98530.00;;;26.45;64.91
31239;BME280;17871;31.584;74.450;2023-02-19T12:24:37;98530.66;;;26.17;65.58
31239;BME280;17871;31.584;74.450;2023-02-19T12:32:48;98532.63;;;26.12;65.99
31239;BME280;17871;31.584;74.450;2023-02-19T12:35:58;98519.47;;;26.13;66.10
31239;BME280;17871;31.584;74.450;2023-02-19T12:38:44;98517.91;;;25.94;67.06
31239;BME280;17871;31.584;74.450;2023-02-19T12:41:27;98518.66;;;25.96;66.80
31239;BME280;17871;31.584;74.450;2023-02-19T12:44:02;98528.72;;;25.88;67.36
31239;BME280;17871;31.584;74.450;2023-02-19T12:46:42;98526.53;;;25.96;67.45
31239;BME280;17871;31.584;74.450;2023-02-19T12:49:25;98535.63;;;25.89;67.71
31239;BME280;17871;31.584;74.450;2023-02-19T12:52:25;98527.50;;;25.77;68.35
31239;BME280;17871;31.584;74.450;2023-02-19T12:55:02;98524.34;;;25.71;68.44
31239;BME280;17871;31.584;74.450;2023-02-19T12:57:36;98530.28;;;25.57;69.19
31239;BME280;17871;31.584;74.450;2023-02-19T13:03:04;98521.69;;;25.55;69.83
31239;BME280;17871;31.584;74.450;2023-02-19T13:05:45;98521.56;;;25.40;70.19
31239;BME280;17871;31.584;74.450;2023-02-19T13:08:36;98525.34;;;25.34;70.77
31239;BME280;17871;31.584;74.450;2023-02-19T13:11:28;98520.88;;;25.36;70.54
31239;BME280;17871;31.584;74.450;2023-02-19T13:14:11;98518.88;;;25.24;71.20
31239;BME280;17871;31.584;74.450;2023-02-19T13:16:48;98519.25;;;25.16;71.43
31239;BME280;17871;31.584;74.450;2023-02-19T13:19:19;98528.06;;;24.97;71.83
31239;BME280;17871;31.584;74.450;2023-02-19T13:22:01;98527.03;;;25.18;72.05
31239;BME280;17871;31.584;74.450;2023-02-19T13:24:51;98516.34;;;25.05;72.29
31239;BME280;17871;31.584;74.450;2023-02-19T13:31:08;98521.09;;;25.14;72.44
31239;BME280;17871;31.584;74.450;2023-02-19T13:33:53;98523.94;;;25.10;73.09
31239;BME280;17871;31.584;74.450;2023-02-19T13:36:27;98519.31;;;24.98;73.01
31239;BME280;17871;31.584;74.450;2023-02-19T13:38:58;98521.94;;;24.98;73.23
31239;BME280;17871;31.584;74.450;2023-02-19T13:44:06;98521.72;;;25.02;73.97
31239;BME280;17871;31.584;74.450;2023-02-19T13:46:44;98523.94;;;24.93;74.23
31239;BME280;17871;31.584;74.450;2023-02-19T14:01:09;98539.19;;;24.83;75.65
31239;BME280;17871;31.584;74.450;2023-02-19T14:03:50;98547.31;;;24.77;75.61
31239;BME280;17871;31.584;74.450;2023-02-19T14:06:21;98544.94;;;24.54;75.93
31239;BME280;17871;31.584;74.450;2023-02-19T14:14:35;98556.16;;;24.74;75.97
31239;BME280;17871;31.584;74.450;2023-02-19T14:25:39;98543.03;;;24.57;76.96
31239;BME280;17871;31.584;74.450;2023-02-19T14:31:29;98534.91;;;24.45;77.74
31239;BME280;17871;31.584;74.450;2023-02-19T14:33:49;98541.28;;;24.39;77.88
31239;BME280;17871;31.584;74.450;2023-02-19T14:36:33;98541.13;;;24.42;77.87
31239;BME280;17871;31.584;74.450;2023-02-19T14:39:27;98546.84;;;24.32;78.19
31239;BME280;17871;31.584;74.450;2023-02-19T14:42:04;98552.72;;;24.37;78.26
31239;BME280;17871;31.584;74.450;2023-02-19T14:44:44;98544.09;;;24.35;78.33
31239;BME280;17871;31.584;74.450;2023-02-19T14:47:19;98547.75;;;24.31;78.41
31239;BME280;17871;31.584;74.450;2023-02-19T14:50:02;98550.59;;;24.26;78.39
31239;BME280;17871;31.584;74.450;2023-02-19T14:52:53;98553.53;;;24.37;78.18
31239;BME280;17871;31.584;74.450;2023-02-19T14:55:37;98559.34;;;24.25;78.88
31239;BME280;17871;31.584;74.450;2023-02-19T14:58:14;98561.31;;;24.20;79.01
31239;BME280;17871;31.584;74.450;2023-02-19T15:00:45;98561.97;;;24.05;79.26
31239;BME280;17871;31.584;74.450;2023-02-19T15:05:58;98575.28;;;24.19;79.16
31239;BME280;17871;31.584;74.450;2023-02-19T15:08:43;98582.97;;;24.22;79.33
31239;BME280;17871;31.584;74.450;2023-02-19T15:11:19;98574.72;;;24.12;79.76
31239;BME280;17871;31.584;74.450;2023-02-19T15:13:58;98567.91;;;24.08;79.82
31239;BME280;17871;31.584;74.450;2023-02-19T15:16:29;98576.59;;;23.89;80.35
31239;BME280;17871;31.584;74.450;2023-02-19T15:18:59;98569.44;;;23.94;80.75
31239;BME280;17871;31.584;74.450;2023-02-19T15:21:30;98580.59;;;23.97;82.34
31239;BME280;17871;31.584;74.450;2023-02-19T15:24:01;98593.16;;;24.08;83.33
31239;BME280;17871;31.584;74.450;2023-02-19T15:26:36;98587.59;;;24.17;84.03